sensor_id;sensor_type;location;lat;lon;timestamp;temperature;humidity
25708;DHT22;13567;61.652;17.100;2022-11-20T00:01:22;-0.40;99.90
25708;DHT22;13567;61.652;17.100;2022-11-20T00:03:51;-0.40;99.90
25708;DHT22;13567;61.652;17.100;2022-11-20T00:06:19;-0.40;99.90
25708;DHT22;13567;61.652;17.100;2022-11-20T00:08:47;-0.50;99.90
25708;DHT22;13567;61.652;17.100;2022-11-20T00:11:16;-0.50;99.90
25708;DHT22;13567;61.652;17.100;2022-11-20T00:13:45;-0.50;99.90
25708;DHT22;13567;61.652;17.100;2022-11-20T00:16:14;-0.50;99.90
25708;DHT22;13567;61.652;17.100;2022-11-20T00:18:41;-0.50;99.90
25708;DHT22;13567;61.652;17.100;2022-11-20T00:21:25;-0.50;99.90
25708;DHT22;13567;61.652;17.100;2022-11-20T00:23:54;-0.50;99.90
25708;DHT22;13567;61.652;17.100;2022-11-20T00:26:23;-0.40;99.90
25708;DHT22;13567;61.652;17.100;2022-11-20T00:29:00;-0.40;99.90
25708;DHT22;13567;61.652;17.100;2022-11-20T00:31:29;-0.40;99.90
25708;DHT22;13567;61.652;17.100;2022-11-20T00:33:56;-0.40;99.90
25708;DHT22;13567;61.652;17.100;2022-11-20T00:36:26;-0.40;99.90
25708;DHT22;13567;61.652;17.100;2022-11-20T00:38:55;-0.40;99.90
25708;DHT22;13567;61.652;17.100;2022-11-20T00:41:23;-0.40;99.90
25708;DHT22;13567;61.652;17.100;2022-11-20T00:43:55;-0.40;99.90
25708;DHT22;13567;61.652;17.100;2022-11-20T00:46:24;-0.40;99.90
25708;DHT22;13567;61.652;17.100;2022-11-20T00:48:52;-0.40;99.90
25708;DHT22;13567;61.652;17.100;2022-11-20T00:51:22;-0.40;99.90
25708;DHT22;13567;61.652;17.100;2022-11-20T00:53:50;-0.40;99.90
25708;DHT22;13567;61.652;17.100;2022-11-20T00:56:18;-0.40;99.90
25708;DHT22;13567;61.652;17.100;2022-11-20T00:58:47;-0.40;99.90
25708;DHT22;13567;61.652;17.100;2022-11-20T01:01:15;-0.30;99.90
25708;DHT22;13567;61.652;17.100;2022-11-20T01:03:45;-0.30;99.90
25708;DHT22;13567;61.652;17.100;2022-11-20T01:06:15;-0.30;99.90
25708;DHT22;13567;61.652;17.100;2022-11-20T01:08:43;-0.30;99.90
25708;DHT22;13567;61.652;17.100;2022-11-20T01:11:20;-0.30;99.90
25708;DHT22;13567;61.652;17.100;2022-11-20T01:13:49;-0.30;99.90
25708;DHT22;13567;61.652;17.100;2022-11-20T01:16:22;-0.30;99.90
25708;DHT22;13567;61.652;17.100;2022-11-20T01:18:51;-0.30;99.90
25708;DHT22;13567;61.652;17.100;2022-11-20T01:21:33;-0.30;99.90
25708;DHT22;13567;61.652;17.100;2022-11-20T01:24:00;-0.30;99.90
25708;DHT22;13567;61.652;17.100;2022-11-20T01:26:29;-0.30;99.90
25708;DHT22;13567;61.652;17.100;2022-11-20T01:28:57;-0.30;99.90
25708;DHT22;13567;61.652;17.100;2022-11-20T01:31:27;-0.30;99.90
25708;DHT22;13567;61.652;17.100;2022-11-20T01:33:56;-0.30;99.90
25708;DHT22;13567;61.652;17.100;2022-11-20T01:36:27;-0.30;99.90
25708;DHT22;13567;61.652;17.100;2022-11-20T01:38:57;-0.30;99.90
25708;DHT22;13567;61.652;17.100;2022-11-20T01:41:25;-0.30;99.90
25708;DHT22;13567;61.652;17.100;2022-11-20T01:44:13;-0.40;99.90
25708;DHT22;13567;61.652;17.100;2022-11-20T01:47:02;-0.30;99.90
25708;DHT22;13567;61.652;17.100;2022-11-20T01:52:04;-0.30;99.90
25708;DHT22;13567;61.652;17.100;2022-11-20T01:54:39;-0.30;99.90
25708;DHT22;13567;61.652;17.100;2022-11-20T01:57:10;-0.40;99.90
25708;DHT22;13567;61.652;17.100;2022-11-20T01:59:44;-0.40;99.90
25708;DHT22;13567;61.652;17.100;2022-11-20T02:02:12;-0.40;99.90
25708;DHT22;13567;61.652;17.100;2022-11-20T02:04:39;-0.40;99.90
25708;DHT22;13567;61.652;17.100;2022-11-20T02:07:06;-0.40;99.90
25708;DHT22;13567;61.652;17.100;2022-11-20T02:09:34;-0.40;99.90
25708;DHT22;13567;61.652;17.100;2022-11-20T02:12:01;-0.40;99.90
25708;DHT22;13567;61.652;17.100;2022-11-20T02:14:28;-0.30;99.90
25708;DHT22;13567;61.652;17.100;2022-11-20T02:16:56;-0.30;99.90
25708;DHT22;13567;61.652;17.100;2022-11-20T02:19:29;-0.40;99.90
25708;DHT22;13567;61.652;17.100;2022-11-20T02:22:05;-0.40;99.90
25708;DHT22;13567;61.652;17.100;2022-11-20T02:24:34;-0.40;99.90
25708;DHT22;13567;61.652;17.100;2022-11-20T02:27:10;-0.40;99.90
25708;DHT22;13567;61.652;17.100;2022-11-20T02:32:38;-0.40;99.90
25708;DHT22;13567;61.652;17.100;2022-11-20T02:37:48;-0.30;99.90
25708;DHT22;13567;61.652;17.100;2022-11-20T02:40:15;-0.40;99.90
25708;DHT22;13567;61.652;17.100;2022-11-20T02:42:42;-0.40;99.90
25708;DHT22;13567;61.652;17.100;2022-11-20T02:45:09;-0.40;99.90
25708;DHT22;13567;61.652;17.100;2022-11-20T02:47:37;-0.40;99.90
25708;DHT22;13567;61.652;17.100;2022-11-20T02:50:05;-0.40;99.90
25708;DHT22;13567;61.652;17.100;2022-11-20T02:52:32;-0.40;99.90
25708;DHT22;13567;61.652;17.100;2022-11-20T02:54:59;-0.40;99.90
25708;DHT22;13567;61.652;17.100;2022-11-20T02:57:27;-0.40;99.90
25708;DHT22;13567;61.652;17.100;2022-11-20T02:59:54;-0.30;99.90
25708;DHT22;13567;61.652;17.100;2022-11-20T03:02:22;-0.30;99.90
25708;DHT22;13567;61.652;17.100;2022-11-20T03:04:49;-0.30;99.90
25708;DHT22;13567;61.652;17.100;2022-11-20T03:07:16;-0.30;99.90
25708;DHT22;13567;61.652;17.100;2022-11-20T03:09:43;-0.30;99.90
25708;DHT22;13567;61.652;17.100;2022-11-20T03:12:10;-0.30;99.90
25708;DHT22;13567;61.652;17.100;2022-11-20T03:14:37;-0.30;99.90
25708;DHT22;13567;61.652;17.100;2022-11-20T03:17:03;-0.30;99.90
25708;DHT22;13567;61.652;17.100;2022-11-20T03:19:30;-0.20;99.90
25708;DHT22;13567;61.652;17.100;2022-11-20T03:21:57;-0.20;99.90
25708;DHT22;13567;61.652;17.100;2022-11-20T03:24:24;-0.10;99.90
25708;DHT22;13567;61.652;17.100;2022-11-20T03:26:51;-0.20;99.90
25708;DHT22;13567;61.652;17.100;2022-11-20T03:29:18;-0.20;99.90
25708;DHT22;13567;61.652;17.100;2022-11-20T03:31:46;-0.10;99.90
25708;DHT22;13567;61.652;17.100;2022-11-20T03:34:13;-0.20;99.90
25708;DHT22;13567;61.652;17.100;2022-11-20T03:36:42;-0.20;99.90
25708;DHT22;13567;61.652;17.100;2022-11-20T03:39:10;-0.10;99.90
25708;DHT22;13567;61.652;17.100;2022-11-20T03:41:39;-0.10;99.90
25708;DHT22;13567;61.652;17.100;2022-11-20T03:44:08;-0.10;99.90
25708;DHT22;13567;61.652;17.100;2022-11-20T03:46:36;-0.10;99.90
25708;DHT22;13567;61.652;17.100;2022-11-20T03:49:03;-0.20;99.90
25708;DHT22;13567;61.652;17.100;2022-11-20T03:51:32;-0.20;99.90
25708;DHT22;13567;61.652;17.100;2022-11-20T03:54:01;-0.30;99.90
25708;DHT22;13567;61.652;17.100;2022-11-20T03:56:31;-0.30;99.90
25708;DHT22;13567;61.652;17.100;2022-11-20T03:58:59;-0.30;99.90
25708;DHT22;13567;61.652;17.100;2022-11-20T04:01:29;-0.40;99.90
25708;DHT22;13567;61.652;17.100;2022-11-20T04:03:57;-0.40;99.90
25708;DHT22;13567;61.652;17.100;2022-11-20T04:06:30;-0.50;99.90
25708;DHT22;13567;61.652;17.100;2022-11-20T04:08:58;-0.50;99.90
25708;DHT22;13567;61.652;17.100;2022-11-20T04:11:29;-0.50;99.90
25708;DHT22;13567;61.652;17.100;2022-11-20T04:13:59;-0.50;99.90
25708;DHT22;13567;61.652;17.100;2022-11-20T04:16:28;-0.60;99.90
25708;DHT22;13567;61.652;17.100;2022-11-20T04:19:00;-0.60;99.90
25708;DHT22;13567;61.652;17.100;2022-11-20T04:21:28;-0.60;99.90
25708;DHT22;13567;61.652;17.100;2022-11-20T04:23:55;-0.60;99.90
25708;DHT22;13567;61.652;17.100;2022-11-20T04:26:24;-0.60;99.90
25708;DHT22;13567;61.652;17.100;2022-11-20T04:28:51;-0.60;99.90
25708;DHT22;13567;61.652;17.100;2022-11-20T04:31:22;-0.60;99.90
25708;DHT22;13567;61.652;17.100;2022-11-20T04:33:50;-0.60;99.90
25708;DHT22;13567;61.652;17.100;2022-11-20T04:36:19;-0.60;99.90
25708;DHT22;13567;61.652;17.100;2022-11-20T04:38:51;-0.70;99.90
25708;DHT22;13567;61.652;17.100;2022-11-20T04:41:31;-0.60;99.90
25708;DHT22;13567;61.652;17.100;2022-11-20T04:44:00;-0.70;99.90
25708;DHT22;13567;61.652;17.100;2022-11-20T04:46:33;-0.70;99.90
25708;DHT22;13567;61.652;17.100;2022-11-20T04:49:00;-0.70;99.90
25708;DHT22;13567;61.652;17.100;2022-11-20T04:51:27;-0.70;99.90
25708;DHT22;13567;61.652;17.100;2022-11-20T04:53:55;-0.80;99.90
25708;DHT22;13567;61.652;17.100;2022-11-20T04:56:22;-0.80;99.90
25708;DHT22;13567;61.652;17.100;2022-11-20T04:58:49;-0.80;99.90
25708;DHT22;13567;61.652;17.100;2022-11-20T05:01:21;-0.80;99.90
25708;DHT22;13567;61.652;17.100;2022-11-20T05:03:49;-0.90;99.90
25708;DHT22;13567;61.652;17.100;2022-11-20T05:06:19;-0.90;99.90
25708;DHT22;13567;61.652;17.100;2022-11-20T05:08:46;-0.90;99.90
25708;DHT22;13567;61.652;17.100;2022-11-20T05:11:16;-0.90;99.90
25708;DHT22;13567;61.652;17.100;2022-11-20T05:13:43;-0.90;99.90
25708;DHT22;13567;61.652;17.100;2022-11-20T05:16:16;-0.90;99.90
25708;DHT22;13567;61.652;17.100;2022-11-20T05:18:44;-0.90;99.90
25708;DHT22;13567;61.652;17.100;2022-11-20T05:21:12;-0.90;99.90
25708;DHT22;13567;61.652;17.100;2022-11-20T05:23:40;-0.90;99.90
25708;DHT22;13567;61.652;17.100;2022-11-20T05:26:12;-1.00;99.90
25708;DHT22;13567;61.652;17.100;2022-11-20T05:28:39;-0.90;99.90
25708;DHT22;13567;61.652;17.100;2022-11-20T05:31:11;-0.90;99.90
25708;DHT22;13567;61.652;17.100;2022-11-20T05:33:43;-1.00;99.90
25708;DHT22;13567;61.652;17.100;2022-11-20T05:36:12;-0.90;99.90
25708;DHT22;13567;61.652;17.100;2022-11-20T05:38:40;-0.90;99.90
25708;DHT22;13567;61.652;17.100;2022-11-20T05:41:12;-0.90;99.90
25708;DHT22;13567;61.652;17.100;2022-11-20T05:43:42;-0.90;99.90
25708;DHT22;13567;61.652;17.100;2022-11-20T05:46:11;-0.90;99.90
25708;DHT22;13567;61.652;17.100;2022-11-20T05:48:40;-0.90;99.90
25708;DHT22;13567;61.652;17.100;2022-11-20T05:51:09;-0.90;99.90
25708;DHT22;13567;61.652;17.100;2022-11-20T05:53:37;-0.90;99.90
25708;DHT22;13567;61.652;17.100;2022-11-20T05:56:11;-0.90;99.90
25708;DHT22;13567;61.652;17.100;2022-11-20T05:58:39;-0.90;99.90
25708;DHT22;13567;61.652;17.100;2022-11-20T06:01:13;-0.90;99.90
25708;DHT22;13567;61.652;17.100;2022-11-20T06:03:41;-1.00;99.90
25708;DHT22;13567;61.652;17.100;2022-11-20T06:06:10;-1.00;99.90
25708;DHT22;13567;61.652;17.100;2022-11-20T06:08:37;-1.00;99.90
25708;DHT22;13567;61.652;17.100;2022-11-20T06:11:08;-1.00;99.90
25708;DHT22;13567;61.652;17.100;2022-11-20T06:13:36;-1.00;99.90
25708;DHT22;13567;61.652;17.100;2022-11-20T06:16:08;-1.00;99.90
25708;DHT22;13567;61.652;17.100;2022-11-20T06:18:36;-1.00;99.90
25708;DHT22;13567;61.652;17.100;2022-11-20T06:21:06;-1.00;99.90
25708;DHT22;13567;61.652;17.100;2022-11-20T06:23:34;-1.00;99.90
25708;DHT22;13567;61.652;17.100;2022-11-20T06:26:04;-1.00;99.90
25708;DHT22;13567;61.652;17.100;2022-11-20T06:28:31;-1.00;99.90
25708;DHT22;13567;61.652;17.100;2022-11-20T06:30:59;-1.00;99.90
25708;DHT22;13567;61.652;17.100;2022-11-20T06:33:26;-1.00;99.90
25708;DHT22;13567;61.652;17.100;2022-11-20T06:35:59;-0.90;99.90
25708;DHT22;13567;61.652;17.100;2022-11-20T06:38:33;-0.90;99.90
25708;DHT22;13567;61.652;17.100;2022-11-20T06:41:00;-0.90;99.90
25708;DHT22;13567;61.652;17.100;2022-11-20T06:43:28;-1.00;99.90
25708;DHT22;13567;61.652;17.100;2022-11-20T06:45:56;-0.90;99.90
25708;DHT22;13567;61.652;17.100;2022-11-20T06:48:26;-1.00;99.90
25708;DHT22;13567;61.652;17.100;2022-11-20T06:50:53;-1.00;99.90
25708;DHT22;13567;61.652;17.100;2022-11-20T06:53:21;-1.10;99.90
25708;DHT22;13567;61.652;17.100;2022-11-20T06:55:49;-1.00;99.90
25708;DHT22;13567;61.652;17.100;2022-11-20T06:58:17;-1.00;99.90
25708;DHT22;13567;61.652;17.100;2022-11-20T07:00:44;-1.00;99.90
25708;DHT22;13567;61.652;17.100;2022-11-20T07:03:12;-1.00;99.90
25708;DHT22;13567;61.652;17.100;2022-11-20T07:05:39;-1.00;99.90
25708;DHT22;13567;61.652;17.100;2022-11-20T07:08:07;-1.00;99.90
25708;DHT22;13567;61.652;17.100;2022-11-20T07:10:34;-1.10;99.90
25708;DHT22;13567;61.652;17.100;2022-11-20T07:13:01;-1.10;99.90
25708;DHT22;13567;61.652;17.100;2022-11-20T07:15:29;-1.10;99.90
25708;DHT22;13567;61.652;17.100;2022-11-20T07:17:59;-1.10;99.90
25708;DHT22;13567;61.652;17.100;2022-11-20T07:20:26;-1.10;99.90
25708;DHT22;13567;61.652;17.100;2022-11-20T07:22:57;-1.10;99.90
25708;DHT22;13567;61.652;17.100;2022-11-20T07:25:25;-1.00;99.90
25708;DHT22;13567;61.652;17.100;2022-11-20T07:27:56;-1.00;99.90
25708;DHT22;13567;61.652;17.100;2022-11-20T07:30:24;-1.00;99.90
25708;DHT22;13567;61.652;17.100;2022-11-20T07:32:52;-1.10;99.90
25708;DHT22;13567;61.652;17.100;2022-11-20T07:35:19;-1.00;99.90
25708;DHT22;13567;61.652;17.100;2022-11-20T07:37:47;-1.10;99.90
25708;DHT22;13567;61.652;17.100;2022-11-20T07:40:16;-1.10;99.90
25708;DHT22;13567;61.652;17.100;2022-11-20T07:42:49;-1.20;99.90
25708;DHT22;13567;61.652;17.100;2022-11-20T07:45:18;-1.20;99.90
25708;DHT22;13567;61.652;17.100;2022-11-20T07:47:49;-1.20;99.90
25708;DHT22;13567;61.652;17.100;2022-11-20T07:50:19;-1.20;99.90
25708;DHT22;13567;61.652;17.100;2022-11-20T07:52:50;-1.10;99.90
25708;DHT22;13567;61.652;17.100;2022-11-20T07:55:24;-1.10;99.90
25708;DHT22;13567;61.652;17.100;2022-11-20T07:57:58;-1.10;99.90
25708;DHT22;13567;61.652;17.100;2022-11-20T08:00:27;-1.00;99.90
25708;DHT22;13567;61.652;17.100;2022-11-20T08:02:55;-1.10;99.90
25708;DHT22;13567;61.652;17.100;2022-11-20T08:05:25;-1.10;99.90
25708;DHT22;13567;61.652;17.100;2022-11-20T08:07:53;-1.10;99.90
25708;DHT22;13567;61.652;17.100;2022-11-20T08:10:20;-1.00;99.90
25708;DHT22;13567;61.652;17.100;2022-11-20T08:12:49;-1.00;99.90
25708;DHT22;13567;61.652;17.100;2022-11-20T08:15:36;-1.00;99.90
25708;DHT22;13567;61.652;17.100;2022-11-20T08:18:07;-1.00;99.90
25708;DHT22;13567;61.652;17.100;2022-11-20T08:20:55;-1.00;99.90
25708;DHT22;13567;61.652;17.100;2022-11-20T08:23:22;-1.10;99.90
25708;DHT22;13567;61.652;17.100;2022-11-20T08:25:50;-1.00;99.90
25708;DHT22;13567;61.652;17.100;2022-11-20T08:28:18;-1.00;99.90
25708;DHT22;13567;61.652;17.100;2022-11-20T08:30:49;-1.00;99.90
25708;DHT22;13567;61.652;17.100;2022-11-20T08:33:17;-1.00;99.90
25708;DHT22;13567;61.652;17.100;2022-11-20T08:35:44;-1.00;99.90
25708;DHT22;13567;61.652;17.100;2022-11-20T08:38:12;-0.90;99.90
25708;DHT22;13567;61.652;17.100;2022-11-20T08:40:39;-1.00;99.90
25708;DHT22;13567;61.652;17.100;2022-11-20T08:43:06;-1.00;99.90
25708;DHT22;13567;61.652;17.100;2022-11-20T08:45:33;-1.00;99.90
25708;DHT22;13567;61.652;17.100;2022-11-20T08:48:04;-1.00;99.90
25708;DHT22;13567;61.652;17.100;2022-11-20T08:50:32;-1.00;99.90
25708;DHT22;13567;61.652;17.100;2022-11-20T08:53:06;-1.00;99.90
25708;DHT22;13567;61.652;17.100;2022-11-20T08:55:33;-1.00;99.90
25708;DHT22;13567;61.652;17.100;2022-11-20T08:58:06;-1.00;99.90
25708;DHT22;13567;61.652;17.100;2022-11-20T09:00:34;-1.00;99.90
25708;DHT22;13567;61.652;17.100;2022-11-20T09:03:01;-0.90;99.90
25708;DHT22;13567;61.652;17.100;2022-11-20T09:05:28;-0.90;99.90
25708;DHT22;13567;61.652;17.100;2022-11-20T09:07:56;-0.90;99.90
25708;DHT22;13567;61.652;17.100;2022-11-20T09:10:24;-1.00;99.90
25708;DHT22;13567;61.652;17.100;2022-11-20T09:12:52;-1.00;99.90
25708;DHT22;13567;61.652;17.100;2022-11-20T09:15:19;-0.90;99.90
25708;DHT22;13567;61.652;17.100;2022-11-20T09:17:59;-0.90;99.90
25708;DHT22;13567;61.652;17.100;2022-11-20T09:20:28;-0.90;99.90
25708;DHT22;13567;61.652;17.100;2022-11-20T09:22:56;-0.80;99.90
25708;DHT22;13567;61.652;17.100;2022-11-20T09:25:23;-0.80;99.90
25708;DHT22;13567;61.652;17.100;2022-11-20T09:27:57;-0.80;99.90
25708;DHT22;13567;61.652;17.100;2022-11-20T09:30:26;-0.80;99.90
25708;DHT22;13567;61.652;17.100;2022-11-20T09:32:53;-0.90;99.90
25708;DHT22;13567;61.652;17.100;2022-11-20T09:35:21;-0.80;99.90
25708;DHT22;13567;61.652;17.100;2022-11-20T09:37:48;-0.80;99.90
25708;DHT22;13567;61.652;17.100;2022-11-20T09:40:27;-0.90;99.90
25708;DHT22;13567;61.652;17.100;2022-11-20T09:43:38;-0.90;99.90
25708;DHT22;13567;61.652;17.100;2022-11-20T09:49:01;-0.90;99.90
25708;DHT22;13567;61.652;17.100;2022-11-20T09:54:21;-0.90;99.90
25708;DHT22;13567;61.652;17.100;2022-11-20T09:57:00;-0.90;99.90
25708;DHT22;13567;61.652;17.100;2022-11-20T09:59:44;-0.90;99.90
25708;DHT22;13567;61.652;17.100;2022-11-20T10:02:29;-0.90;99.90
25708;DHT22;13567;61.652;17.100;2022-11-20T10:07:42;-0.80;99.90
25708;DHT22;13567;61.652;17.100;2022-11-20T10:10:20;-0.90;99.90
25708;DHT22;13567;61.652;17.100;2022-11-20T10:16:09;-0.90;99.90
25708;DHT22;13567;61.652;17.100;2022-11-20T10:19:07;-0.90;99.90
25708;DHT22;13567;61.652;17.100;2022-11-20T10:21:59;-0.80;99.90
25708;DHT22;13567;61.652;17.100;2022-11-20T10:25:02;-0.80;99.90
25708;DHT22;13567;61.652;17.100;2022-11-20T10:30:16;-0.70;99.90
25708;DHT22;13567;61.652;17.100;2022-11-20T10:32:47;-0.60;99.90
25708;DHT22;13567;61.652;17.100;2022-11-20T10:37:47;-0.70;99.90
25708;DHT22;13567;61.652;17.100;2022-11-20T10:40:51;-0.70;99.90
25708;DHT22;13567;61.652;17.100;2022-11-20T10:43:28;-0.60;99.90
25708;DHT22;13567;61.652;17.100;2022-11-20T10:46:06;-0.50;99.90
25708;DHT22;13567;61.652;17.100;2022-11-20T10:48:36;-0.40;99.90
25708;DHT22;13567;61.652;17.100;2022-11-20T10:51:15;-0.40;99.90
25708;DHT22;13567;61.652;17.100;2022-11-20T10:53:54;-0.50;99.90
25708;DHT22;13567;61.652;17.100;2022-11-20T10:56:39;-0.50;99.90
25708;DHT22;13567;61.652;17.100;2022-11-20T11:02:19;-0.60;99.90
25708;DHT22;13567;61.652;17.100;2022-11-20T11:04:51;-0.60;99.90
25708;DHT22;13567;61.652;17.100;2022-11-20T11:07:30;-0.50;99.90
25708;DHT22;13567;61.652;17.100;2022-11-20T11:09:58;-0.30;99.90
25708;DHT22;13567;61.652;17.100;2022-11-20T11:12:26;-0.30;99.90
25708;DHT22;13567;61.652;17.100;2022-11-20T11:14:56;-0.20;99.90
25708;DHT22;13567;61.652;17.100;2022-11-20T11:17:28;-0.20;99.90
25708;DHT22;13567;61.652;17.100;2022-11-20T11:22:45;-0.20;99.90
25708;DHT22;13567;61.652;17.100;2022-11-20T11:25:29;-0.10;99.90
25708;DHT22;13567;61.652;17.100;2022-11-20T11:28:20;-0.10;99.90
25708;DHT22;13567;61.652;17.100;2022-11-20T11:30:46;-0.10;99.90
25708;DHT22;13567;61.652;17.100;2022-11-20T11:36:00;-0.10;99.90
25708;DHT22;13567;61.652;17.100;2022-11-20T11:38:35;-0.10;99.90
25708;DHT22;13567;61.652;17.100;2022-11-20T11:41:04;-0.10;99.90
25708;DHT22;13567;61.652;17.100;2022-11-20T11:43:36;-0.10;99.90
25708;DHT22;13567;61.652;17.100;2022-11-20T11:46:32;-0.10;99.90
25708;DHT22;13567;61.652;17.100;2022-11-20T11:51:46;-0.10;99.90
25708;DHT22;13567;61.652;17.100;2022-11-20T11:54:22;-0.10;99.90
25708;DHT22;13567;61.652;17.100;2022-11-20T11:56:51;0.00;99.90
25708;DHT22;13567;61.652;17.100;2022-11-20T11:59:29;-0.10;99.90
25708;DHT22;13567;61.652;17.100;2022-11-20T12:02:04;-0.10;99.90
25708;DHT22;13567;61.652;17.100;2022-11-20T12:04:54;-0.10;99.90
25708;DHT22;13567;61.652;17.100;2022-11-20T12:07:41;-0.10;99.90
25708;DHT22;13567;61.652;17.100;2022-11-20T12:13:04;-0.10;99.90
25708;DHT22;13567;61.652;17.100;2022-11-20T12:15:44;-0.10;99.90
25708;DHT22;13567;61.652;17.100;2022-11-20T12:18:16;-0.10;99.90
25708;DHT22;13567;61.652;17.100;2022-11-20T12:26:34;0.00;99.90
25708;DHT22;13567;61.652;17.100;2022-11-20T12:29:48;-0.10;99.90
25708;DHT22;13567;61.652;17.100;2022-11-20T12:40:17;0.00;99.90
25708;DHT22;13567;61.652;17.100;2022-11-20T12:42:53;0.00;99.90
25708;DHT22;13567;61.652;17.100;2022-11-20T12:57:50;-0.10;99.90
25708;DHT22;13567;61.652;17.100;2022-11-20T13:00:22;-0.10;99.90
25708;DHT22;13567;61.652;17.100;2022-11-20T13:03:12;-0.10;99.90
25708;DHT22;13567;61.652;17.100;2022-11-20T13:06:04;-0.10;99.90
25708;DHT22;13567;61.652;17.100;2022-11-20T13:16:38;-0.20;99.90
25708;DHT22;13567;61.652;17.100;2022-11-20T13:19:11;-0.20;99.90
25708;DHT22;13567;61.652;17.100;2022-11-20T13:21:45;-0.20;99.90
25708;DHT22;13567;61.652;17.100;2022-11-20T13:26:47;-0.20;99.90
25708;DHT22;13567;61.652;17.100;2022-11-20T13:29:18;-0.20;99.90
25708;DHT22;13567;61.652;17.100;2022-11-20T13:31:47;-0.10;99.90
25708;DHT22;13567;61.652;17.100;2022-11-20T13:34:25;-0.20;99.90
25708;DHT22;13567;61.652;17.100;2022-11-20T13:36:55;-0.20;99.90
25708;DHT22;13567;61.652;17.100;2022-11-20T13:39:36;-0.20;99.90
25708;DHT22;13567;61.652;17.100;2022-11-20T13:44:44;-0.20;99.90
25708;DHT22;13567;61.652;17.100;2022-11-20T13:47:27;-0.20;99.90
25708;DHT22;13567;61.652;17.100;2022-11-20T13:49:57;-0.20;99.90
25708;DHT22;13567;61.652;17.100;2022-11-20T13:52:45;-0.20;99.90
25708;DHT22;13567;61.652;17.100;2022-11-20T13:58:10;-0.30;99.90
25708;DHT22;13567;61.652;17.100;2022-11-20T14:00:50;-0.20;99.90
25708;DHT22;13567;61.652;17.100;2022-11-20T14:03:21;-0.20;99.90
25708;DHT22;13567;61.652;17.100;2022-11-20T14:06:26;-0.30;99.90
25708;DHT22;13567;61.652;17.100;2022-11-20T14:08:55;-0.20;99.90
25708;DHT22;13567;61.652;17.100;2022-11-20T14:11:28;-0.20;99.90
25708;DHT22;13567;61.652;17.100;2022-11-20T14:13:58;-0.20;99.90
25708;DHT22;13567;61.652;17.100;2022-11-20T14:16:28;-0.20;99.90
25708;DHT22;13567;61.652;17.100;2022-11-20T14:18:57;-0.20;99.90
25708;DHT22;13567;61.652;17.100;2022-11-20T14:21:29;-0.20;99.90
25708;DHT22;13567;61.652;17.100;2022-11-20T14:24:06;-0.20;99.90
25708;DHT22;13567;61.652;17.100;2022-11-20T14:26:33;-0.20;99.90
25708;DHT22;13567;61.652;17.100;2022-11-20T14:29:00;-0.20;99.90
25708;DHT22;13567;61.652;17.100;2022-11-20T14:31:28;-0.20;99.90
25708;DHT22;13567;61.652;17.100;2022-11-20T14:33:55;-0.10;99.90
25708;DHT22;13567;61.652;17.100;2022-11-20T14:36:24;-0.10;99.90
25708;DHT22;13567;61.652;17.100;2022-11-20T14:38:52;-0.10;99.90
25708;DHT22;13567;61.652;17.100;2022-11-20T14:41:22;-0.10;99.90
25708;DHT22;13567;61.652;17.100;2022-11-20T14:43:59;-0.10;99.90
25708;DHT22;13567;61.652;17.100;2022-11-20T14:46:27;-0.10;99.90
25708;DHT22;13567;61.652;17.100;2022-11-20T14:48:56;-0.10;99.90
25708;DHT22;13567;61.652;17.100;2022-11-20T14:51:38;-0.10;99.90
25708;DHT22;13567;61.652;17.100;2022-11-20T14:54:13;-0.10;99.90
25708;DHT22;13567;61.652;17.100;2022-11-20T14:56:42;-0.10;99.90
25708;DHT22;13567;61.652;17.100;2022-11-20T14:59:09;-0.10;99.90
25708;DHT22;13567;61.652;17.100;2022-11-20T15:01:36;-0.10;99.90
25708;DHT22;13567;61.652;17.100;2022-11-20T15:04:10;-0.10;99.90
25708;DHT22;13567;61.652;17.100;2022-11-20T15:06:48;-0.10;99.90
25708;DHT22;13567;61.652;17.100;2022-11-20T15:09:16;0.00;99.90
25708;DHT22;13567;61.652;17.100;2022-11-20T15:11:54;-0.10;99.90
25708;DHT22;13567;61.652;17.100;2022-11-20T15:14:21;0.00;99.90
25708;DHT22;13567;61.652;17.100;2022-11-20T15:16:50;0.00;99.90
25708;DHT22;13567;61.652;17.100;2022-11-20T15:19:20;0.00;99.90
25708;DHT22;13567;61.652;17.100;2022-11-20T15:21:48;-0.10;99.90
25708;DHT22;13567;61.652;17.100;2022-11-20T15:24:15;0.00;99.90
25708;DHT22;13567;61.652;17.100;2022-11-20T15:26:42;0.00;99.90
25708;DHT22;13567;61.652;17.100;2022-11-20T15:29:12;-0.10;99.90
25708;DHT22;13567;61.652;17.100;2022-11-20T15:31:39;0.00;99.90
25708;DHT22;13567;61.652;17.100;2022-11-20T15:34:12;-0.10;99.90
25708;DHT22;13567;61.652;17.100;2022-11-20T15:36:40;-0.10;99.90
25708;DHT22;13567;61.652;17.100;2022-11-20T15:39:08;-0.10;99.90
25708;DHT22;13567;61.652;17.100;2022-11-20T15:41:35;-0.10;99.90
25708;DHT22;13567;61.652;17.100;2022-11-20T15:44:03;0.00;99.90
25708;DHT22;13567;61.652;17.100;2022-11-20T15:46:32;0.00;99.90
25708;DHT22;13567;61.652;17.100;2022-11-20T15:49:05;0.00;99.90
25708;DHT22;13567;61.652;17.100;2022-11-20T15:51:37;0.00;99.90
25708;DHT22;13567;61.652;17.100;2022-11-20T15:54:13;0.00;99.90
25708;DHT22;13567;61.652;17.100;2022-11-20T15:56:40;0.00;99.90
25708;DHT22;13567;61.652;17.100;2022-11-20T15:59:07;0.00;99.90
25708;DHT22;13567;61.652;17.100;2022-11-20T16:01:34;0.00;99.90
25708;DHT22;13567;61.652;17.100;2022-11-20T16:04:02;0.00;99.90
25708;DHT22;13567;61.652;17.100;2022-11-20T16:06:29;0.00;99.90
25708;DHT22;13567;61.652;17.100;2022-11-20T16:08:56;0.00;99.90
25708;DHT22;13567;61.652;17.100;2022-11-20T16:11:23;0.00;99.90
25708;DHT22;13567;61.652;17.100;2022-11-20T16:13:50;0.00;99.90
25708;DHT22;13567;61.652;17.100;2022-11-20T16:16:37;0.10;99.90
25708;DHT22;13567;61.652;17.100;2022-11-20T16:19:06;0.10;99.90
25708;DHT22;13567;61.652;17.100;2022-11-20T16:21:33;0.00;99.90
25708;DHT22;13567;61.652;17.100;2022-11-20T16:24:03;0.00;99.90
25708;DHT22;13567;61.652;17.100;2022-11-20T16:26:32;0.00;99.90
25708;DHT22;13567;61.652;17.100;2022-11-20T16:29:01;0.00;99.90
25708;DHT22;13567;61.652;17.100;2022-11-20T16:31:29;0.00;99.90
25708;DHT22;13567;61.652;17.100;2022-11-20T16:33:58;0.00;99.90
25708;DHT22;13567;61.652;17.100;2022-11-20T16:36:27;0.10;99.90
25708;DHT22;13567;61.652;17.100;2022-11-20T16:38:56;0.00;99.90
25708;DHT22;13567;61.652;17.100;2022-11-20T16:41:24;0.00;99.90
25708;DHT22;13567;61.652;17.100;2022-11-20T16:43:57;0.10;99.90
25708;DHT22;13567;61.652;17.100;2022-11-20T16:46:29;0.00;99.90
25708;DHT22;13567;61.652;17.100;2022-11-20T16:48:58;0.00;99.90
25708;DHT22;13567;61.652;17.100;2022-11-20T16:51:27;0.00;99.90
25708;DHT22;13567;61.652;17.100;2022-11-20T16:53:55;0.00;99.90
25708;DHT22;13567;61.652;17.100;2022-11-20T16:56:24;0.10;99.90
25708;DHT22;13567;61.652;17.100;2022-11-20T16:58:54;0.10;99.90
25708;DHT22;13567;61.652;17.100;2022-11-20T17:01:23;0.00;99.90
25708;DHT22;13567;61.652;17.100;2022-11-20T17:04:03;0.10;99.90